sensor_id;sensor_type;location;lat;lon;timestamp;P1;durP1;ratioP1;P2;durP2;ratioP2
16512;SDS011;8369;48.030;11.598;2022-10-31T00:02:13;8.27;;;3.77;;
16512;SDS011;8369;48.030;11.598;2022-10-31T00:04:39;8.87;;;3.70;;
16512;SDS011;8369;48.030;11.598;2022-10-31T00:07:05;4.23;;;3.13;;
16512;SDS011;8369;48.030;11.598;2022-10-31T00:09:31;6.47;;;3.27;;
16512;SDS011;8369;48.030;11.598;2022-10-31T00:11:57;5.60;;;2.93;;
16512;SDS011;8369;48.030;11.598;2022-10-31T00:14:22;6.53;;;2.93;;
16512;SDS011;8369;48.030;11.598;2022-10-31T00:16:48;6.80;;;3.10;;
16512;SDS011;8369;48.030;11.598;2022-10-31T00:19:16;4.60;;;3.30;;
16512;SDS011;8369;48.030;11.598;2022-10-31T00:21:41;4.90;;;3.07;;
16512;SDS011;8369;48.030;11.598;2022-10-31T00:24:07;11.67;;;3.37;;
16512;SDS011;8369;48.030;11.598;2022-10-31T00:26:33;4.97;;;3.10;;
16512;SDS011;8369;48.030;11.598;2022-10-31T00:28:59;5.30;;;3.40;;
16512;SDS011;8369;48.030;11.598;2022-10-31T00:31:26;4.50;;;3.33;;
16512;SDS011;8369;48.030;11.598;2022-10-31T00:33:52;5.73;;;3.00;;
16512;SDS011;8369;48.030;11.598;2022-10-31T00:36:18;5.70;;;3.07;;
16512;SDS011;8369;48.030;11.598;2022-10-31T00:38:48;6.73;;;3.90;;
16512;SDS011;8369;48.030;11.598;2022-10-31T00:41:15;8.50;;;2.80;;
16512;SDS011;8369;48.030;11.598;2022-10-31T00:43:42;8.73;;;3.10;;
16512;SDS011;8369;48.030;11.598;2022-10-31T00:46:09;4.83;;;2.97;;
16512;SDS011;8369;48.030;11.598;2022-10-31T00:48:35;7.37;;;3.10;;
16512;SDS011;8369;48.030;11.598;2022-10-31T00:51:01;6.67;;;2.60;;
16512;SDS011;8369;48.030;11.598;2022-10-31T00:53:27;5.20;;;2.90;;
16512;SDS011;8369;48.030;11.598;2022-10-31T00:55:53;7.27;;;3.20;;
16512;SDS011;8369;48.030;11.598;2022-10-31T00:58:18;3.87;;;2.80;;
16512;SDS011;8369;48.030;11.598;2022-10-31T01:00:46;4.27;;;2.73;;
16512;SDS011;8369;48.030;11.598;2022-10-31T01:03:20;4.20;;;2.83;;
16512;SDS011;8369;48.030;11.598;2022-10-31T01:05:54;8.43;;;2.80;;
16512;SDS011;8369;48.030;11.598;2022-10-31T01:08:23;9.03;;;2.93;;
16512;SDS011;8369;48.030;11.598;2022-10-31T01:13:38;8.63;;;3.00;;
16512;SDS011;8369;48.030;11.598;2022-10-31T01:16:05;13.37;;;2.90;;
16512;SDS011;8369;48.030;11.598;2022-10-31T01:18:32;6.83;;;3.07;;
16512;SDS011;8369;48.030;11.598;2022-10-31T01:21:09;6.37;;;3.07;;
16512;SDS011;8369;48.030;11.598;2022-10-31T01:23:37;9.30;;;3.20;;
16512;SDS011;8369;48.030;11.598;2022-10-31T01:26:04;7.07;;;3.10;;
16512;SDS011;8369;48.030;11.598;2022-10-31T01:28:50;6.07;;;2.70;;
16512;SDS011;8369;48.030;11.598;2022-10-31T01:31:21;4.30;;;2.83;;
16512;SDS011;8369;48.030;11.598;2022-10-31T01:33:51;4.80;;;2.60;;
16512;SDS011;8369;48.030;11.598;2022-10-31T01:36:19;7.83;;;3.30;;
16512;SDS011;8369;48.030;11.598;2022-10-31T01:38:50;4.77;;;3.20;;
16512;SDS011;8369;48.030;11.598;2022-10-31T01:41:19;5.07;;;2.73;;
16512;SDS011;8369;48.030;11.598;2022-10-31T01:46:20;4.13;;;2.90;;
16512;SDS011;8369;48.030;11.598;2022-10-31T01:48:50;5.40;;;2.50;;
16512;SDS011;8369;48.030;11.598;2022-10-31T01:51:18;4.87;;;2.77;;
16512;SDS011;8369;48.030;11.598;2022-10-31T01:53:48;5.30;;;2.77;;
16512;SDS011;8369;48.030;11.598;2022-10-31T01:56:16;5.53;;;2.47;;
16512;SDS011;8369;48.030;11.598;2022-10-31T01:58:43;6.87;;;3.23;;
16512;SDS011;8369;48.030;11.598;2022-10-31T02:01:11;7.07;;;3.37;;
16512;SDS011;8369;48.030;11.598;2022-10-31T02:03:39;4.70;;;3.10;;
16512;SDS011;8369;48.030;11.598;2022-10-31T02:06:06;5.20;;;2.60;;
16512;SDS011;8369;48.030;11.598;2022-10-31T02:08:38;7.63;;;2.90;;
16512;SDS011;8369;48.030;11.598;2022-10-31T02:11:05;6.80;;;3.43;;
16512;SDS011;8369;48.030;11.598;2022-10-31T02:13:32;5.33;;;2.93;;
16512;SDS011;8369;48.030;11.598;2022-10-31T02:15:59;7.73;;;3.23;;
16512;SDS011;8369;48.030;11.598;2022-10-31T02:18:26;8.77;;;3.03;;
16512;SDS011;8369;48.030;11.598;2022-10-31T02:21:07;5.57;;;2.77;;
16512;SDS011;8369;48.030;11.598;2022-10-31T02:32:19;5.17;;;2.90;;
16512;SDS011;8369;48.030;11.598;2022-10-31T02:38:05;2.93;;;2.50;;
16512;SDS011;8369;48.030;11.598;2022-10-31T02:40:35;7.13;;;2.80;;
16512;SDS011;8369;48.030;11.598;2022-10-31T02:43:34;5.10;;;2.90;;
16512;SDS011;8369;48.030;11.598;2022-10-31T02:46:17;5.77;;;2.97;;
16512;SDS011;8369;48.030;11.598;2022-10-31T02:48:53;6.33;;;3.30;;
16512;SDS011;8369;48.030;11.598;2022-10-31T02:51:22;7.93;;;3.13;;
16512;SDS011;8369;48.030;11.598;2022-10-31T02:53:48;12.50;;;2.90;;
16512;SDS011;8369;48.030;11.598;2022-10-31T02:56:17;7.60;;;3.13;;
16512;SDS011;8369;48.030;11.598;2022-10-31T02:58:48;6.97;;;3.33;;
16512;SDS011;8369;48.030;11.598;2022-10-31T03:04:01;3.70;;;2.40;;
16512;SDS011;8369;48.030;11.598;2022-10-31T03:06:49;5.23;;;3.07;;
16512;SDS011;8369;48.030;11.598;2022-10-31T03:09:27;6.00;;;3.07;;
16512;SDS011;8369;48.030;11.598;2022-10-31T03:13:06;6.23;;;3.13;;
16512;SDS011;8369;48.030;11.598;2022-10-31T03:17:29;5.37;;;2.93;;
16512;SDS011;8369;48.030;11.598;2022-10-31T03:20:01;6.97;;;2.87;;
16512;SDS011;8369;48.030;11.598;2022-10-31T03:22:31;4.27;;;2.17;;
16512;SDS011;8369;48.030;11.598;2022-10-31T03:24:58;5.77;;;2.90;;
16512;SDS011;8369;48.030;11.598;2022-10-31T03:27:26;5.10;;;2.80;;
16512;SDS011;8369;48.030;11.598;2022-10-31T03:29:54;6.80;;;2.97;;
16512;SDS011;8369;48.030;11.598;2022-10-31T03:32:23;4.07;;;2.27;;
16512;SDS011;8369;48.030;11.598;2022-10-31T03:34:53;3.93;;;2.97;;
16512;SDS011;8369;48.030;11.598;2022-10-31T03:37:23;4.77;;;2.47;;
16512;SDS011;8369;48.030;11.598;2022-10-31T03:39:52;6.17;;;2.37;;
16512;SDS011;8369;48.030;11.598;2022-10-31T03:42:23;9.07;;;2.70;;
16512;SDS011;8369;48.030;11.598;2022-10-31T03:44:52;6.50;;;2.90;;
16512;SDS011;8369;48.030;11.598;2022-10-31T03:47:24;8.93;;;3.00;;
16512;SDS011;8369;48.030;11.598;2022-10-31T03:49:50;6.10;;;3.20;;
16512;SDS011;8369;48.030;11.598;2022-10-31T03:52:23;8.00;;;3.80;;
16512;SDS011;8369;48.030;11.598;2022-10-31T03:55:07;8.23;;;3.90;;
16512;SDS011;8369;48.030;11.598;2022-10-31T03:57:45;10.77;;;3.90;;
16512;SDS011;8369;48.030;11.598;2022-10-31T04:00:33;8.03;;;4.03;;
16512;SDS011;8369;48.030;11.598;2022-10-31T04:03:06;5.40;;;3.57;;
16512;SDS011;8369;48.030;11.598;2022-10-31T04:05:38;6.43;;;4.03;;
16512;SDS011;8369;48.030;11.598;2022-10-31T04:08:07;6.67;;;3.50;;
16512;SDS011;8369;48.030;11.598;2022-10-31T04:10:37;8.23;;;3.97;;
16512;SDS011;8369;48.030;11.598;2022-10-31T04:13:08;13.90;;;4.00;;
16512;SDS011;8369;48.030;11.598;2022-10-31T04:15:38;7.50;;;3.20;;
16512;SDS011;8369;48.030;11.598;2022-10-31T04:18:06;6.93;;;3.10;;
16512;SDS011;8369;48.030;11.598;2022-10-31T04:20:39;5.43;;;3.07;;
16512;SDS011;8369;48.030;11.598;2022-10-31T04:23:39;6.60;;;3.00;;
16512;SDS011;8369;48.030;11.598;2022-10-31T04:25:59;8.37;;;3.03;;
16512;SDS011;8369;48.030;11.598;2022-10-31T04:28:25;7.30;;;3.37;;
16512;SDS011;8369;48.030;11.598;2022-10-31T04:30:51;6.20;;;3.03;;
16512;SDS011;8369;48.030;11.598;2022-10-31T04:33:17;8.97;;;3.13;;
16512;SDS011;8369;48.030;11.598;2022-10-31T04:35:43;7.13;;;3.33;;
16512;SDS011;8369;48.030;11.598;2022-10-31T04:38:08;6.90;;;2.83;;
16512;SDS011;8369;48.030;11.598;2022-10-31T04:40:34;4.77;;;2.93;;
16512;SDS011;8369;48.030;11.598;2022-10-31T04:43:00;6.17;;;3.10;;
16512;SDS011;8369;48.030;11.598;2022-10-31T04:45:26;6.07;;;3.37;;
16512;SDS011;8369;48.030;11.598;2022-10-31T04:47:51;6.60;;;3.10;;
16512;SDS011;8369;48.030;11.598;2022-10-31T04:50:17;7.20;;;3.80;;
16512;SDS011;8369;48.030;11.598;2022-10-31T04:52:44;11.57;;;3.87;;
16512;SDS011;8369;48.030;11.598;2022-10-31T04:55:11;7.13;;;3.87;;
16512;SDS011;8369;48.030;11.598;2022-10-31T04:57:44;9.87;;;4.40;;
16512;SDS011;8369;48.030;11.598;2022-10-31T05:00:12;8.10;;;4.40;;
16512;SDS011;8369;48.030;11.598;2022-10-31T05:02:46;8.10;;;4.67;;
16512;SDS011;8369;48.030;11.598;2022-10-31T05:05:13;9.50;;;4.23;;
16512;SDS011;8369;48.030;11.598;2022-10-31T05:07:40;11.23;;;4.87;;
16512;SDS011;8369;48.030;11.598;2022-10-31T05:10:07;9.07;;;3.90;;
16512;SDS011;8369;48.030;11.598;2022-10-31T05:12:37;7.00;;;4.00;;
16512;SDS011;8369;48.030;11.598;2022-10-31T05:15:03;9.47;;;4.37;;
16512;SDS011;8369;48.030;11.598;2022-10-31T05:17:30;9.67;;;4.07;;
16512;SDS011;8369;48.030;11.598;2022-10-31T05:19:57;6.73;;;3.77;;
16512;SDS011;8369;48.030;11.598;2022-10-31T05:22:23;10.10;;;4.57;;
16512;SDS011;8369;48.030;11.598;2022-10-31T05:24:48;6.33;;;4.13;;
16512;SDS011;8369;48.030;11.598;2022-10-31T05:27:14;9.40;;;5.13;;
16512;SDS011;8369;48.030;11.598;2022-10-31T05:29:40;7.27;;;4.57;;
16512;SDS011;8369;48.030;11.598;2022-10-31T05:32:05;9.13;;;4.90;;
16512;SDS011;8369;48.030;11.598;2022-10-31T05:34:31;7.70;;;3.83;;
16512;SDS011;8369;48.030;11.598;2022-10-31T05:36:57;8.60;;;3.63;;
16512;SDS011;8369;48.030;11.598;2022-10-31T05:39:22;7.40;;;3.53;;
16512;SDS011;8369;48.030;11.598;2022-10-31T05:41:48;5.23;;;3.63;;
16512;SDS011;8369;48.030;11.598;2022-10-31T05:44:14;3.90;;;2.87;;
16512;SDS011;8369;48.030;11.598;2022-10-31T05:46:39;4.90;;;2.57;;
16512;SDS011;8369;48.030;11.598;2022-10-31T05:49:05;4.20;;;2.30;;
16512;SDS011;8369;48.030;11.598;2022-10-31T05:51:31;4.77;;;2.40;;
16512;SDS011;8369;48.030;11.598;2022-10-31T05:53:56;7.90;;;2.83;;
16512;SDS011;8369;48.030;11.598;2022-10-31T05:56:22;4.43;;;2.60;;
16512;SDS011;8369;48.030;11.598;2022-10-31T05:58:48;11.03;;;2.60;;
16512;SDS011;8369;48.030;11.598;2022-10-31T06:01:14;7.87;;;2.37;;
16512;SDS011;8369;48.030;11.598;2022-10-31T06:03:39;7.03;;;2.63;;
16512;SDS011;8369;48.030;11.598;2022-10-31T06:06:05;5.43;;;2.30;;
16512;SDS011;8369;48.030;11.598;2022-10-31T06:08:31;7.97;;;2.23;;
16512;SDS011;8369;48.030;11.598;2022-10-31T06:10:57;8.83;;;2.50;;
16512;SDS011;8369;48.030;11.598;2022-10-31T06:13:22;4.37;;;2.43;;
16512;SDS011;8369;48.030;11.598;2022-10-31T06:15:48;6.60;;;2.00;;
16512;SDS011;8369;48.030;11.598;2022-10-31T06:18:14;7.57;;;2.73;;
16512;SDS011;8369;48.030;11.598;2022-10-31T06:20:39;3.63;;;1.90;;
16512;SDS011;8369;48.030;11.598;2022-10-31T06:23:05;7.00;;;2.40;;
16512;SDS011;8369;48.030;11.598;2022-10-31T06:25:31;3.90;;;2.00;;
16512;SDS011;8369;48.030;11.598;2022-10-31T06:27:58;3.30;;;2.13;;
16512;SDS011;8369;48.030;11.598;2022-10-31T06:30:24;10.50;;;2.50;;
16512;SDS011;8369;48.030;11.598;2022-10-31T06:32:50;7.17;;;2.60;;
16512;SDS011;8369;48.030;11.598;2022-10-31T06:35:16;6.00;;;2.97;;
16512;SDS011;8369;48.030;11.598;2022-10-31T06:37:42;6.10;;;2.63;;
16512;SDS011;8369;48.030;11.598;2022-10-31T06:40:08;11.07;;;2.83;;
16512;SDS011;8369;48.030;11.598;2022-10-31T06:42:34;11.37;;;3.13;;
16512;SDS011;8369;48.030;11.598;2022-10-31T06:45:00;6.57;;;2.13;;
16512;SDS011;8369;48.030;11.598;2022-10-31T06:47:25;9.83;;;2.50;;
16512;SDS011;8369;48.030;11.598;2022-10-31T06:49:51;4.87;;;2.47;;
16512;SDS011;8369;48.030;11.598;2022-10-31T06:52:17;8.33;;;3.33;;
16512;SDS011;8369;48.030;11.598;2022-10-31T06:54:42;8.87;;;2.53;;
16512;SDS011;8369;48.030;11.598;2022-10-31T06:57:08;10.97;;;2.93;;
16512;SDS011;8369;48.030;11.598;2022-10-31T06:59:34;6.97;;;3.07;;
16512;SDS011;8369;48.030;11.598;2022-10-31T07:01:59;7.33;;;2.67;;
16512;SDS011;8369;48.030;11.598;2022-10-31T07:04:25;5.10;;;2.77;;
16512;SDS011;8369;48.030;11.598;2022-10-31T07:06:51;5.83;;;2.40;;
16512;SDS011;8369;48.030;11.598;2022-10-31T07:09:17;7.17;;;2.93;;
16512;SDS011;8369;48.030;11.598;2022-10-31T07:11:44;7.80;;;2.70;;
16512;SDS011;8369;48.030;11.598;2022-10-31T07:14:09;16.80;;;3.57;;
16512;SDS011;8369;48.030;11.598;2022-10-31T07:16:35;5.57;;;3.07;;
16512;SDS011;8369;48.030;11.598;2022-10-31T07:19:01;5.27;;;2.73;;
16512;SDS011;8369;48.030;11.598;2022-10-31T07:21:26;3.10;;;2.30;;
16512;SDS011;8369;48.030;11.598;2022-10-31T07:23:52;5.93;;;2.40;;
16512;SDS011;8369;48.030;11.598;2022-10-31T07:26:18;9.13;;;3.03;;
16512;SDS011;8369;48.030;11.598;2022-10-31T07:28:45;7.93;;;2.60;;
16512;SDS011;8369;48.030;11.598;2022-10-31T07:31:12;7.60;;;2.90;;
16512;SDS011;8369;48.030;11.598;2022-10-31T07:33:37;6.00;;;2.83;;
16512;SDS011;8369;48.030;11.598;2022-10-31T07:36:04;9.80;;;2.90;;
16512;SDS011;8369;48.030;11.598;2022-10-31T07:38:31;9.30;;;3.50;;
16512;SDS011;8369;48.030;11.598;2022-10-31T07:40:56;5.87;;;3.37;;
16512;SDS011;8369;48.030;11.598;2022-10-31T07:43:22;11.63;;;4.00;;
16512;SDS011;8369;48.030;11.598;2022-10-31T07:45:51;8.60;;;3.73;;
16512;SDS011;8369;48.030;11.598;2022-10-31T07:48:18;7.93;;;3.27;;
16512;SDS011;8369;48.030;11.598;2022-10-31T07:50:44;8.73;;;3.50;;
16512;SDS011;8369;48.030;11.598;2022-10-31T07:53:11;9.90;;;3.92;;
16512;SDS011;8369;48.030;11.598;2022-10-31T07:55:38;7.33;;;3.87;;
16512;SDS011;8369;48.030;11.598;2022-10-31T07:58:05;12.53;;;3.93;;
16512;SDS011;8369;48.030;11.598;2022-10-31T08:00:36;11.90;;;3.67;;
16512;SDS011;8369;48.030;11.598;2022-10-31T08:03:04;7.40;;;4.00;;
16512;SDS011;8369;48.030;11.598;2022-10-31T08:05:32;9.73;;;3.70;;
16512;SDS011;8369;48.030;11.598;2022-10-31T08:07:59;6.20;;;3.30;;
16512;SDS011;8369;48.030;11.598;2022-10-31T08:10:25;12.90;;;3.70;;
16512;SDS011;8369;48.030;11.598;2022-10-31T08:12:58;7.27;;;3.33;;
16512;SDS011;8369;48.030;11.598;2022-10-31T08:15:25;7.27;;;3.63;;
16512;SDS011;8369;48.030;11.598;2022-10-31T08:17:51;11.77;;;3.43;;
16512;SDS011;8369;48.030;11.598;2022-10-31T08:20:18;9.80;;;3.33;;
16512;SDS011;8369;48.030;11.598;2022-10-31T08:22:52;7.47;;;4.20;;
16512;SDS011;8369;48.030;11.598;2022-10-31T08:25:19;15.20;;;3.67;;
16512;SDS011;8369;48.030;11.598;2022-10-31T08:27:48;10.97;;;4.27;;
16512;SDS011;8369;48.030;11.598;2022-10-31T08:30:18;4.43;;;2.90;;
16512;SDS011;8369;48.030;11.598;2022-10-31T08:32:47;5.63;;;2.63;;
16512;SDS011;8369;48.030;11.598;2022-10-31T08:35:21;5.20;;;2.40;;
16512;SDS011;8369;48.030;11.598;2022-10-31T08:37:51;5.80;;;2.87;;
16512;SDS011;8369;48.030;11.598;2022-10-31T08:40:19;5.90;;;2.30;;
16512;SDS011;8369;48.030;11.598;2022-10-31T08:42:45;6.40;;;3.17;;
16512;SDS011;8369;48.030;11.598;2022-10-31T08:45:10;5.90;;;2.50;;
16512;SDS011;8369;48.030;11.598;2022-10-31T08:47:36;5.50;;;2.47;;
16512;SDS011;8369;48.030;11.598;2022-10-31T08:50:02;7.50;;;2.93;;
16512;SDS011;8369;48.030;11.598;2022-10-31T08:52:28;9.07;;;3.07;;
16512;SDS011;8369;48.030;11.598;2022-10-31T08:54:53;4.40;;;2.50;;
16512;SDS011;8369;48.030;11.598;2022-10-31T08:57:19;8.17;;;3.27;;
16512;SDS011;8369;48.030;11.598;2022-10-31T08:59:45;5.13;;;2.60;;
16512;SDS011;8369;48.030;11.598;2022-10-31T09:02:11;10.40;;;3.40;;
16512;SDS011;8369;48.030;11.598;2022-10-31T09:04:36;8.97;;;3.27;;
16512;SDS011;8369;48.030;11.598;2022-10-31T09:07:02;7.60;;;3.70;;
16512;SDS011;8369;48.030;11.598;2022-10-31T09:09:28;6.40;;;3.03;;
16512;SDS011;8369;48.030;11.598;2022-10-31T09:11:53;11.07;;;4.13;;
16512;SDS011;8369;48.030;11.598;2022-10-31T09:14:19;10.83;;;4.00;;
16512;SDS011;8369;48.030;11.598;2022-10-31T09:16:45;9.73;;;3.87;;
16512;SDS011;8369;48.030;11.598;2022-10-31T09:19:10;8.87;;;3.80;;
16512;SDS011;8369;48.030;11.598;2022-10-31T09:21:36;8.93;;;3.97;;
16512;SDS011;8369;48.030;11.598;2022-10-31T09:24:02;10.20;;;4.43;;
16512;SDS011;8369;48.030;11.598;2022-10-31T09:26:28;9.63;;;4.17;;
16512;SDS011;8369;48.030;11.598;2022-10-31T09:28:54;7.57;;;4.13;;
16512;SDS011;8369;48.030;11.598;2022-10-31T09:31:20;6.83;;;4.20;;
16512;SDS011;8369;48.030;11.598;2022-10-31T09:33:45;7.17;;;3.90;;
16512;SDS011;8369;48.030;11.598;2022-10-31T09:36:11;6.17;;;3.90;;
16512;SDS011;8369;48.030;11.598;2022-10-31T09:38:37;5.90;;;3.73;;
16512;SDS011;8369;48.030;11.598;2022-10-31T09:49:28;11.80;;;4.03;;
16512;SDS011;8369;48.030;11.598;2022-10-31T09:54:54;8.97;;;3.73;;
16512;SDS011;8369;48.030;11.598;2022-10-31T09:57:28;8.90;;;3.60;;
16512;SDS011;8369;48.030;11.598;2022-10-31T09:59:58;12.67;;;3.70;;
16512;SDS011;8369;48.030;11.598;2022-10-31T10:02:29;9.33;;;3.97;;
16512;SDS011;8369;48.030;11.598;2022-10-31T10:05:10;8.47;;;3.13;;
16512;SDS011;8369;48.030;11.598;2022-10-31T10:08:00;7.30;;;3.20;;
16512;SDS011;8369;48.030;11.598;2022-10-31T10:13:14;7.67;;;2.90;;
16512;SDS011;8369;48.030;11.598;2022-10-31T10:16:03;7.47;;;2.40;;
16512;SDS011;8369;48.030;11.598;2022-10-31T10:24:39;6.97;;;2.53;;
16512;SDS011;8369;48.030;11.598;2022-10-31T10:27:34;6.93;;;2.57;;
16512;SDS011;8369;48.030;11.598;2022-10-31T10:30:39;8.13;;;2.72;;
16512;SDS011;8369;48.030;11.598;2022-10-31T10:33:14;6.63;;;2.60;;
16512;SDS011;8369;48.030;11.598;2022-10-31T10:35:47;4.37;;;2.60;;
16512;SDS011;8369;48.030;11.598;2022-10-31T10:38:26;6.90;;;2.33;;
16512;SDS011;8369;48.030;11.598;2022-10-31T10:41:12;9.20;;;2.67;;
16512;SDS011;8369;48.030;11.598;2022-10-31T10:43:43;9.70;;;3.07;;
16512;SDS011;8369;48.030;11.598;2022-10-31T10:51:43;7.60;;;2.63;;
16512;SDS011;8369;48.030;11.598;2022-10-31T10:59:39;7.93;;;3.07;;
16512;SDS011;8369;48.030;11.598;2022-10-31T11:02:16;5.13;;;2.43;;
16512;SDS011;8369;48.030;11.598;2022-10-31T11:04:48;11.13;;;3.17;;
16512;SDS011;8369;48.030;11.598;2022-10-31T11:07:17;11.33;;;2.43;;
16512;SDS011;8369;48.030;11.598;2022-10-31T11:09:43;5.70;;;2.70;;
16512;SDS011;8369;48.030;11.598;2022-10-31T11:12:10;16.67;;;3.53;;
16512;SDS011;8369;48.030;11.598;2022-10-31T11:14:57;5.17;;;2.80;;
16512;SDS011;8369;48.030;11.598;2022-10-31T11:17:27;8.33;;;2.47;;
16512;SDS011;8369;48.030;11.598;2022-10-31T11:20:00;8.40;;;2.30;;
16512;SDS011;8369;48.030;11.598;2022-10-31T11:22:30;10.17;;;3.27;;
16512;SDS011;8369;48.030;11.598;2022-10-31T11:24:57;5.57;;;2.60;;
16512;SDS011;8369;48.030;11.598;2022-10-31T11:27:23;11.03;;;3.00;;
16512;SDS011;8369;48.030;11.598;2022-10-31T11:29:50;7.43;;;3.00;;
16512;SDS011;8369;48.030;11.598;2022-10-31T11:32:18;8.27;;;2.97;;
16512;SDS011;8369;48.030;11.598;2022-10-31T11:34:51;7.13;;;2.83;;
16512;SDS011;8369;48.030;11.598;2022-10-31T11:37:28;8.17;;;2.47;;
16512;SDS011;8369;48.030;11.598;2022-10-31T11:40:00;9.60;;;2.90;;
16512;SDS011;8369;48.030;11.598;2022-10-31T11:42:34;9.07;;;2.80;;
16512;SDS011;8369;48.030;11.598;2022-10-31T11:45:45;9.87;;;2.90;;
16512;SDS011;8369;48.030;11.598;2022-10-31T11:47:59;6.80;;;2.70;;
16512;SDS011;8369;48.030;11.598;2022-10-31T11:50:30;6.20;;;2.80;;
16512;SDS011;8369;48.030;11.598;2022-10-31T11:53:24;10.47;;;2.73;;
16512;SDS011;8369;48.030;11.598;2022-10-31T11:58:39;6.20;;;2.50;;
16512;SDS011;8369;48.030;11.598;2022-10-31T12:01:05;7.53;;;3.10;;
16512;SDS011;8369;48.030;11.598;2022-10-31T12:03:57;7.93;;;3.07;;
16512;SDS011;8369;48.030;11.598;2022-10-31T12:06:38;6.30;;;2.40;;
16512;SDS011;8369;48.030;11.598;2022-10-31T12:12:08;5.67;;;2.90;;
16512;SDS011;8369;48.030;11.598;2022-10-31T12:17:24;5.93;;;2.77;;
16512;SDS011;8369;48.030;11.598;2022-10-31T12:25:45;5.70;;;2.70;;
16512;SDS011;8369;48.030;11.598;2022-10-31T12:28:36;4.03;;;2.40;;
16512;SDS011;8369;48.030;11.598;2022-10-31T12:31:24;5.30;;;2.87;;
16512;SDS011;8369;48.030;11.598;2022-10-31T12:36:27;9.17;;;2.73;;
16512;SDS011;8369;48.030;11.598;2022-10-31T12:41:46;8.87;;;2.70;;
16512;SDS011;8369;48.030;11.598;2022-10-31T12:58:24;7.40;;;2.80;;
16512;SDS011;8369;48.030;11.598;2022-10-31T13:01:08;13.17;;;2.83;;
16512;SDS011;8369;48.030;11.598;2022-10-31T13:06:15;5.10;;;2.30;;
16512;SDS011;8369;48.030;11.598;2022-10-31T13:08:52;6.97;;;3.10;;
16512;SDS011;8369;48.030;11.598;2022-10-31T13:11:30;7.80;;;2.60;;
16512;SDS011;8369;48.030;11.598;2022-10-31T13:16:48;7.60;;;2.80;;
16512;SDS011;8369;48.030;11.598;2022-10-31T13:24:20;8.03;;;3.30;;
16512;SDS011;8369;48.030;11.598;2022-10-31T13:26:54;7.60;;;2.80;;
16512;SDS011;8369;48.030;11.598;2022-10-31T13:29:26;8.07;;;2.70;;
16512;SDS011;8369;48.030;11.598;2022-10-31T13:32:04;10.80;;;2.70;;
16512;SDS011;8369;48.030;11.598;2022-10-31T13:34:36;9.97;;;4.30;;
16512;SDS011;8369;48.030;11.598;2022-10-31T13:45:16;6.27;;;2.97;;
16512;SDS011;8369;48.030;11.598;2022-10-31T13:47:54;5.40;;;2.77;;
16512;SDS011;8369;48.030;11.598;2022-10-31T13:50:25;7.93;;;3.10;;
16512;SDS011;8369;48.030;11.598;2022-10-31T13:53:08;7.73;;;2.93;;
16512;SDS011;8369;48.030;11.598;2022-10-31T13:56:11;7.10;;;3.10;;
16512;SDS011;8369;48.030;11.598;2022-10-31T13:58:42;10.97;;;3.13;;
16512;SDS011;8369;48.030;11.598;2022-10-31T14:01:34;8.57;;;3.80;;
16512;SDS011;8369;48.030;11.598;2022-10-31T14:04:14;7.13;;;3.17;;
16512;SDS011;8369;48.030;11.598;2022-10-31T14:06:56;8.97;;;2.90;;
16512;SDS011;8369;48.030;11.598;2022-10-31T14:10:19;8.13;;;2.80;;
16512;SDS011;8369;48.030;11.598;2022-10-31T14:15:42;9.80;;;3.23;;
16512;SDS011;8369;48.030;11.598;2022-10-31T14:18:25;6.27;;;3.00;;
16512;SDS011;8369;48.030;11.598;2022-10-31T14:20:56;7.33;;;3.00;;
16512;SDS011;8369;48.030;11.598;2022-10-31T14:28:42;9.57;;;3.00;;
16512;SDS011;8369;48.030;11.598;2022-10-31T14:39:50;9.17;;;3.03;;
16512;SDS011;8369;48.030;11.598;2022-10-31T14:42:58;10.48;;;3.25;;
16512;SDS011;8369;48.030;11.598;2022-10-31T14:48:03;7.93;;;3.23;;
16512;SDS011;8369;48.030;11.598;2022-10-31T14:50:47;8.13;;;3.63;;
16512;SDS011;8369;48.030;11.598;2022-10-31T14:53:35;12.63;;;3.77;;
16512;SDS011;8369;48.030;11.598;2022-10-31T14:56:09;5.77;;;3.20;;
16512;SDS011;8369;48.030;11.598;2022-10-31T14:58:43;5.73;;;3.00;;
16512;SDS011;8369;48.030;11.598;2022-10-31T15:01:30;8.57;;;3.30;;
16512;SDS011;8369;48.030;11.598;2022-10-31T15:04:01;8.77;;;3.43;;
16512;SDS011;8369;48.030;11.598;2022-10-31T15:06:30;6.27;;;3.27;;
16512;SDS011;8369;48.030;11.598;2022-10-31T15:09:20;8.63;;;3.53;;
16512;SDS011;8369;48.030;11.598;2022-10-31T15:11:50;9.27;;;4.07;;
16512;SDS011;8369;48.030;11.598;2022-10-31T15:14:22;7.03;;;3.27;;
16512;SDS011;8369;48.030;11.598;2022-10-31T15:16:48;9.00;;;3.40;;
16512;SDS011;8369;48.030;11.598;2022-10-31T15:19:15;10.97;;;3.90;;
16512;SDS011;8369;48.030;11.598;2022-10-31T15:21:46;8.87;;;3.63;;
16512;SDS011;8369;48.030;11.598;2022-10-31T15:24:12;16.30;;;3.70;;
16512;SDS011;8369;48.030;11.598;2022-10-31T15:26:52;10.40;;;3.90;;
16512;SDS011;8369;48.030;11.598;2022-10-31T15:29:21;5.30;;;3.30;;
16512;SDS011;8369;48.030;11.598;2022-10-31T15:31:53;9.13;;;3.80;;
16512;SDS011;8369;48.030;11.598;2022-10-31T15:34:31;13.27;;;4.23;;
16512;SDS011;8369;48.030;11.598;2022-10-31T15:37:02;9.73;;;4.37;;
16512;SDS011;8369;48.030;11.598;2022-10-31T15:39:29;11.73;;;3.90;;
16512;SDS011;8369;48.030;11.598;2022-10-31T15:41:56;8.90;;;3.70;;
16512;SDS011;8369;48.030;11.598;2022-10-31T15:44:27;8.77;;;3.60;;
16512;SDS011;8369;48.030;11.598;2022-10-31T15:47:00;10.57;;;3.80;;
16512;SDS011;8369;48.030;11.598;2022-10-31T15:49:32;9.27;;;3.77;;
16512;SDS011;8369;48.030;11.598;2022-10-31T15:52:12;6.47;;;3.83;;
16512;SDS011;8369;48.030;11.598;2022-10-31T15:54:50;9.83;;;3.67;;
16512;SDS011;8369;48.030;11.598;2022-10-31T15:57:19;6.43;;;3.70;;
16512;SDS011;8369;48.030;11.598;2022-10-31T15:59:46;6.30;;;3.63;;
16512;SDS011;8369;48.030;11.598;2022-10-31T16:02:14;7.33;;;4.53;;
16512;SDS011;8369;48.030;11.598;2022-10-31T16:04:54;7.93;;;4.27;;
16512;SDS011;8369;48.030;11.598;2022-10-31T16:07:22;6.43;;;4.17;;
16512;SDS011;8369;48.030;11.598;2022-10-31T16:12:23;11.33;;;4.93;;
16512;SDS011;8369;48.030;11.598;2022-10-31T16:14:51;8.17;;;4.77;;
16512;SDS011;8369;48.030;11.598;2022-10-31T16:17:20;12.77;;;6.97;;
16512;SDS011;8369;48.030;11.598;2022-10-31T16:22:23;15.83;;;8.07;;
16512;SDS011;8369;48.030;11.598;2022-10-31T16:27:35;20.73;;;10.00;;
16512;SDS011;8369;48.030;11.598;2022-10-31T16:30:03;15.17;;;7.93;;
16512;SDS011;8369;48.030;11.598;2022-10-31T16:32:57;11.03;;;6.90;;
16512;SDS011;8369;48.030;11.598;2022-10-31T16:36:33;13.57;;;9.00;;
16512;SDS011;8369;48.030;11.598;2022-10-31T16:39:03;11.43;;;7.77;;
16512;SDS011;8369;48.030;11.598;2022-10-31T16:41:30;15.77;;;8.00;;
16512;SDS011;8369;48.030;11.598;2022-10-31T16:43:59;15.70;;;7.43;;
16512;SDS011;8369;48.030;11.598;2022-10-31T16:46:27;16.10;;;7.40;;
16512;SDS011;8369;48.030;11.598;2022-10-31T16:48:53;16.53;;;7.63;;
16512;SDS011;8369;48.030;11.598;2022-10-31T16:51:19;20.83;;;7.27;;
16512;SDS011;8369;48.030;11.598;2022-10-31T16:53:46;11.50;;;7.93;;
16512;SDS011;8369;48.030;11.598;2022-10-31T16:56:14;12.03;;;7.87;;
16512;SDS011;8369;48.030;11.598;2022-10-31T16:58:42;16.27;;;8.53;;
16512;SDS011;8369;48.030;11.598;2022-10-31T17:01:10;16.20;;;7.20;;
16512;SDS011;8369;48.030;11.598;2022-10-31T17:03:38;12.43;;;6.37;;
16512;SDS011;8369;48.030;11.598;2022-10-31T17:06:04;16.37;;;7.00;;
16512;SDS011;8369;48.030;11.598;2022-10-31T17:08:30;20.67;;;8.67;;
16512;SDS011;8369;48.030;11.598;2022-10-31T17:10:57;18.70;;;10.20;;
16512;SDS011;8369;48.030;11.598;2022-10-31T17:13:25;30.37;;;20.40;;
16512;SDS011;8369;48.030;11.598;2022-10-31T17:15:55;35.00;;;18.57;;
16512;SDS011;8369;48.030;11.598;2022-10-31T17:18:23;32.23;;;19.07;;
16512;SDS011;8369;48.030;11.598;2022-10-31T17:20:49;60.07;;;33.77;;